sensor_id;sensor_type;location;lat;lon;timestamp;P1;durP1;ratioP1;P2;durP2;ratioP2
33150;SDS011;19508;42.578;23.416;2023-03-24T00:01:41;23.13;;;12.15;;
33150;SDS011;19508;42.578;23.416;2023-03-24T00:04:07;24.05;;;13.45;;
33150;SDS011;19508;42.578;23.416;2023-03-24T00:06:33;20.42;;;11.15;;
33150;SDS011;19508;42.578;23.416;2023-03-24T00:09:01;28.23;;;12.13;;
33150;SDS011;19508;42.578;23.416;2023-03-24T00:11:28;21.98;;;13.13;;
33150;SDS011;19508;42.578;23.416;2023-03-24T00:13:53;24.88;;;13.07;;
33150;SDS011;19508;42.578;23.416;2023-03-24T00:16:22;21.23;;;10.90;;
33150;SDS011;19508;42.578;23.416;2023-03-24T00:18:49;20.75;;;12.23;;
33150;SDS011;19508;42.578;23.416;2023-03-24T00:21:17;22.98;;;11.40;;
33150;SDS011;19508;42.578;23.416;2023-03-24T00:23:50;22.75;;;10.93;;
33150;SDS011;19508;42.578;23.416;2023-03-24T00:26:18;21.42;;;10.43;;
33150;SDS011;19508;42.578;23.416;2023-03-24T00:28:45;18.42;;;10.77;;
33150;SDS011;19508;42.578;23.416;2023-03-24T00:31:12;18.77;;;11.25;;
33150;SDS011;19508;42.578;23.416;2023-03-24T00:33:41;18.45;;;10.57;;
33150;SDS011;19508;42.578;23.416;2023-03-24T00:36:09;26.95;;;11.43;;
33150;SDS011;19508;42.578;23.416;2023-03-24T00:38:36;19.23;;;10.90;;
33150;SDS011;19508;42.578;23.416;2023-03-24T00:41:03;19.55;;;11.40;;
33150;SDS011;19508;42.578;23.416;2023-03-24T00:43:30;21.85;;;12.98;;
33150;SDS011;19508;42.578;23.416;2023-03-24T00:46:09;18.77;;;10.82;;
33150;SDS011;19508;42.578;23.416;2023-03-24T00:48:36;19.70;;;10.55;;
33150;SDS011;19508;42.578;23.416;2023-03-24T00:51:02;29.88;;;12.32;;
33150;SDS011;19508;42.578;23.416;2023-03-24T00:53:35;19.38;;;11.65;;
33150;SDS011;19508;42.578;23.416;2023-03-24T00:56:02;32.72;;;14.50;;
33150;SDS011;19508;42.578;23.416;2023-03-24T00:58:27;40.17;;;17.23;;
33150;SDS011;19508;42.578;23.416;2023-03-24T01:00:54;41.15;;;19.05;;
33150;SDS011;19508;42.578;23.416;2023-03-24T01:03:21;38.95;;;16.25;;
33150;SDS011;19508;42.578;23.416;2023-03-24T01:05:51;63.55;;;26.52;;
33150;SDS011;19508;42.578;23.416;2023-03-24T01:08:25;21.45;;;11.80;;
33150;SDS011;19508;42.578;23.416;2023-03-24T01:10:52;22.67;;;11.23;;
33150;SDS011;19508;42.578;23.416;2023-03-24T01:13:22;64.18;;;25.55;;
33150;SDS011;19508;42.578;23.416;2023-03-24T01:15:50;26.08;;;12.63;;
33150;SDS011;19508;42.578;23.416;2023-03-24T01:18:17;15.95;;;8.27;;
33150;SDS011;19508;42.578;23.416;2023-03-24T01:20:44;25.92;;;11.25;;
33150;SDS011;19508;42.578;23.416;2023-03-24T01:23:15;21.58;;;9.88;;
33150;SDS011;19508;42.578;23.416;2023-03-24T01:25:46;19.20;;;10.50;;
33150;SDS011;19508;42.578;23.416;2023-03-24T01:28:14;23.88;;;12.18;;
33150;SDS011;19508;42.578;23.416;2023-03-24T01:30:41;27.02;;;12.55;;
33150;SDS011;19508;42.578;23.416;2023-03-24T01:33:07;20.23;;;10.93;;
33150;SDS011;19508;42.578;23.416;2023-03-24T01:35:32;31.35;;;13.15;;
33150;SDS011;19508;42.578;23.416;2023-03-24T01:37:59;25.45;;;13.48;;
33150;SDS011;19508;42.578;23.416;2023-03-24T01:40:29;31.10;;;15.18;;
33150;SDS011;19508;42.578;23.416;2023-03-24T01:42:56;28.90;;;15.10;;
33150;SDS011;19508;42.578;23.416;2023-03-24T01:53:28;74.00;;;33.35;;
33150;SDS011;19508;42.578;23.416;2023-03-24T01:55:56;89.65;;;39.22;;
33150;SDS011;19508;42.578;23.416;2023-03-24T01:58:22;71.57;;;31.05;;
33150;SDS011;19508;42.578;23.416;2023-03-24T02:00:51;49.97;;;23.73;;
33150;SDS011;19508;42.578;23.416;2023-03-24T02:03:17;56.53;;;22.85;;
33150;SDS011;19508;42.578;23.416;2023-03-24T02:05:46;40.05;;;19.20;;
33150;SDS011;19508;42.578;23.416;2023-03-24T02:11:05;33.40;;;15.27;;
33150;SDS011;19508;42.578;23.416;2023-03-24T02:13:31;34.35;;;17.90;;
33150;SDS011;19508;42.578;23.416;2023-03-24T02:18:39;65.50;;;25.95;;
33150;SDS011;19508;42.578;23.416;2023-03-24T02:35:08;122.03;;;58.13;;
33150;SDS011;19508;42.578;23.416;2023-03-24T02:43:10;30.67;;;16.85;;
33150;SDS011;19508;42.578;23.416;2023-03-24T02:45:51;38.70;;;16.63;;
33150;SDS011;19508;42.578;23.416;2023-03-24T02:51:15;23.80;;;12.70;;
33150;SDS011;19508;42.578;23.416;2023-03-24T02:56:26;26.15;;;13.00;;
33150;SDS011;19508;42.578;23.416;2023-03-24T02:59:06;22.77;;;12.55;;
33150;SDS011;19508;42.578;23.416;2023-03-24T03:06:52;20.05;;;10.63;;
33150;SDS011;19508;42.578;23.416;2023-03-24T03:09:21;24.77;;;12.60;;
33150;SDS011;19508;42.578;23.416;2023-03-24T03:11:49;26.90;;;12.50;;
33150;SDS011;19508;42.578;23.416;2023-03-24T03:14:19;26.48;;;11.70;;
33150;SDS011;19508;42.578;23.416;2023-03-24T03:16:54;23.35;;;11.20;;
33150;SDS011;19508;42.578;23.416;2023-03-24T03:22:10;21.85;;;11.57;;
33150;SDS011;19508;42.578;23.416;2023-03-24T03:24:41;21.73;;;10.93;;
33150;SDS011;19508;42.578;23.416;2023-03-24T03:29:40;18.08;;;10.77;;
33150;SDS011;19508;42.578;23.416;2023-03-24T03:32:12;24.58;;;12.35;;
33150;SDS011;19508;42.578;23.416;2023-03-24T03:34:48;22.55;;;12.18;;
33150;SDS011;19508;42.578;23.416;2023-03-24T03:37:40;23.70;;;11.85;;
33150;SDS011;19508;42.578;23.416;2023-03-24T03:40:16;22.30;;;11.07;;
33150;SDS011;19508;42.578;23.416;2023-03-24T03:42:49;21.85;;;11.13;;
33150;SDS011;19508;42.578;23.416;2023-03-24T03:45:15;23.58;;;10.00;;
33150;SDS011;19508;42.578;23.416;2023-03-24T03:47:41;19.33;;;10.45;;
33150;SDS011;19508;42.578;23.416;2023-03-24T03:50:07;19.60;;;11.10;;
33150;SDS011;19508;42.578;23.416;2023-03-24T03:52:34;20.10;;;10.13;;
33150;SDS011;19508;42.578;23.416;2023-03-24T03:55:02;18.38;;;10.68;;
33150;SDS011;19508;42.578;23.416;2023-03-24T03:57:29;18.65;;;11.13;;
33150;SDS011;19508;42.578;23.416;2023-03-24T03:59:56;24.73;;;11.40;;
33150;SDS011;19508;42.578;23.416;2023-03-24T04:05:18;23.13;;;11.27;;
33150;SDS011;19508;42.578;23.416;2023-03-24T04:20:46;22.40;;;11.60;;
33150;SDS011;19508;42.578;23.416;2023-03-24T04:26:08;22.17;;;10.68;;
33150;SDS011;19508;42.578;23.416;2023-03-24T04:29:02;21.30;;;11.07;;
33150;SDS011;19508;42.578;23.416;2023-03-24T04:31:34;17.00;;;10.73;;
33150;SDS011;19508;42.578;23.416;2023-03-24T04:34:18;24.05;;;12.27;;
33150;SDS011;19508;42.578;23.416;2023-03-24T04:37:23;21.17;;;11.50;;
33150;SDS011;19508;42.578;23.416;2023-03-24T04:39:46;21.65;;;10.77;;
33150;SDS011;19508;42.578;23.416;2023-03-24T04:42:16;92.22;;;38.22;;
33150;SDS011;19508;42.578;23.416;2023-03-24T04:44:47;52.78;;;27.92;;
33150;SDS011;19508;42.578;23.416;2023-03-24T04:47:15;37.55;;;18.52;;
33150;SDS011;19508;42.578;23.416;2023-03-24T04:49:45;44.58;;;21.83;;
33150;SDS011;19508;42.578;23.416;2023-03-24T04:52:10;45.13;;;19.88;;
33150;SDS011;19508;42.578;23.416;2023-03-24T04:54:36;38.80;;;18.90;;
33150;SDS011;19508;42.578;23.416;2023-03-24T04:57:04;53.42;;;23.55;;
33150;SDS011;19508;42.578;23.416;2023-03-24T04:59:30;36.90;;;17.88;;
33150;SDS011;19508;42.578;23.416;2023-03-24T05:01:58;57.20;;;27.58;;
33150;SDS011;19508;42.578;23.416;2023-03-24T05:04:25;47.13;;;22.63;;
33150;SDS011;19508;42.578;23.416;2023-03-24T05:06:52;55.78;;;25.63;;
33150;SDS011;19508;42.578;23.416;2023-03-24T05:09:19;50.17;;;22.95;;
33150;SDS011;19508;42.578;23.416;2023-03-24T05:11:45;48.70;;;22.73;;
33150;SDS011;19508;42.578;23.416;2023-03-24T05:14:11;32.83;;;16.02;;
33150;SDS011;19508;42.578;23.416;2023-03-24T05:16:37;29.98;;;15.45;;
33150;SDS011;19508;42.578;23.416;2023-03-24T05:19:03;23.88;;;14.23;;
33150;SDS011;19508;42.578;23.416;2023-03-24T05:21:29;28.23;;;16.67;;
33150;SDS011;19508;42.578;23.416;2023-03-24T05:23:54;28.98;;;17.52;;
33150;SDS011;19508;42.578;23.416;2023-03-24T05:26:20;60.13;;;26.38;;
33150;SDS011;19508;42.578;23.416;2023-03-24T05:28:46;50.95;;;24.23;;
33150;SDS011;19508;42.578;23.416;2023-03-24T05:31:11;30.30;;;16.67;;
33150;SDS011;19508;42.578;23.416;2023-03-24T05:33:37;21.42;;;11.52;;
33150;SDS011;19508;42.578;23.416;2023-03-24T05:36:02;19.42;;;11.57;;
33150;SDS011;19508;42.578;23.416;2023-03-24T05:38:28;27.58;;;16.42;;
33150;SDS011;19508;42.578;23.416;2023-03-24T05:40:57;23.23;;;13.13;;
33150;SDS011;19508;42.578;23.416;2023-03-24T05:43:23;20.40;;;12.75;;
33150;SDS011;19508;42.578;23.416;2023-03-24T05:45:48;24.95;;;14.73;;
33150;SDS011;19508;42.578;23.416;2023-03-24T05:48:14;26.48;;;14.63;;
33150;SDS011;19508;42.578;23.416;2023-03-24T05:50:40;28.73;;;13.15;;
33150;SDS011;19508;42.578;23.416;2023-03-24T05:53:05;24.10;;;12.00;;
33150;SDS011;19508;42.578;23.416;2023-03-24T05:55:31;25.13;;;12.52;;
33150;SDS011;19508;42.578;23.416;2023-03-24T05:57:56;20.02;;;11.43;;
33150;SDS011;19508;42.578;23.416;2023-03-24T06:00:26;21.15;;;13.18;;
33150;SDS011;19508;42.578;23.416;2023-03-24T06:02:55;16.40;;;9.65;;
33150;SDS011;19508;42.578;23.416;2023-03-24T06:05:22;21.45;;;10.23;;
33150;SDS011;19508;42.578;23.416;2023-03-24T06:07:49;14.50;;;9.43;;
33150;SDS011;19508;42.578;23.416;2023-03-24T06:10:14;20.77;;;10.88;;
33150;SDS011;19508;42.578;23.416;2023-03-24T06:12:42;17.20;;;9.40;;
33150;SDS011;19508;42.578;23.416;2023-03-24T06:15:09;14.68;;;8.13;;
33150;SDS011;19508;42.578;23.416;2023-03-24T06:17:35;12.32;;;7.93;;
33150;SDS011;19508;42.578;23.416;2023-03-24T06:20:07;12.77;;;8.27;;
33150;SDS011;19508;42.578;23.416;2023-03-24T06:22:39;10.55;;;6.85;;
33150;SDS011;19508;42.578;23.416;2023-03-24T06:25:04;15.75;;;9.40;;
33150;SDS011;19508;42.578;23.416;2023-03-24T06:27:30;30.80;;;16.48;;
33150;SDS011;19508;42.578;23.416;2023-03-24T06:29:56;14.57;;;8.85;;
33150;SDS011;19508;42.578;23.416;2023-03-24T06:32:21;17.55;;;9.10;;
33150;SDS011;19508;42.578;23.416;2023-03-24T06:34:47;19.50;;;10.10;;
33150;SDS011;19508;42.578;23.416;2023-03-24T06:37:13;15.20;;;8.63;;
33150;SDS011;19508;42.578;23.416;2023-03-24T06:39:38;20.13;;;12.18;;
33150;SDS011;19508;42.578;23.416;2023-03-24T06:42:04;22.27;;;11.45;;
33150;SDS011;19508;42.578;23.416;2023-03-24T06:44:30;14.00;;;9.15;;
33150;SDS011;19508;42.578;23.416;2023-03-24T06:46:55;16.17;;;10.00;;
33150;SDS011;19508;42.578;23.416;2023-03-24T06:49:20;17.75;;;9.93;;
33150;SDS011;19508;42.578;23.416;2023-03-24T06:51:46;15.60;;;8.65;;
33150;SDS011;19508;42.578;23.416;2023-03-24T06:54:11;32.40;;;17.13;;
33150;SDS011;19508;42.578;23.416;2023-03-24T06:56:37;17.90;;;10.75;;
33150;SDS011;19508;42.578;23.416;2023-03-24T06:59:02;16.88;;;8.73;;
33150;SDS011;19508;42.578;23.416;2023-03-24T07:01:28;15.38;;;9.82;;
33150;SDS011;19508;42.578;23.416;2023-03-24T07:03:54;20.52;;;9.93;;
33150;SDS011;19508;42.578;23.416;2023-03-24T07:06:20;20.08;;;11.30;;
33150;SDS011;19508;42.578;23.416;2023-03-24T07:08:47;14.40;;;8.40;;
33150;SDS011;19508;42.578;23.416;2023-03-24T07:11:13;22.90;;;10.88;;
33150;SDS011;19508;42.578;23.416;2023-03-24T07:13:39;23.55;;;11.73;;
33150;SDS011;19508;42.578;23.416;2023-03-24T07:16:05;11.77;;;7.03;;
33150;SDS011;19508;42.578;23.416;2023-03-24T07:18:30;12.20;;;8.18;;
33150;SDS011;19508;42.578;23.416;2023-03-24T07:20:56;13.93;;;7.25;;
33150;SDS011;19508;42.578;23.416;2023-03-24T07:23:21;16.27;;;9.55;;
33150;SDS011;19508;42.578;23.416;2023-03-24T07:25:47;9.57;;;6.45;;
33150;SDS011;19508;42.578;23.416;2023-03-24T07:28:12;12.68;;;7.80;;
33150;SDS011;19508;42.578;23.416;2023-03-24T07:30:37;12.45;;;6.20;;
33150;SDS011;19508;42.578;23.416;2023-03-24T07:33:03;11.90;;;7.30;;
33150;SDS011;19508;42.578;23.416;2023-03-24T07:35:31;12.77;;;6.18;;
33150;SDS011;19508;42.578;23.416;2023-03-24T07:37:57;14.18;;;9.38;;
33150;SDS011;19508;42.578;23.416;2023-03-24T07:40:26;10.93;;;7.30;;
33150;SDS011;19508;42.578;23.416;2023-03-24T07:42:51;11.90;;;6.80;;
33150;SDS011;19508;42.578;23.416;2023-03-24T07:45:17;12.48;;;6.97;;
33150;SDS011;19508;42.578;23.416;2023-03-24T07:47:43;10.95;;;6.60;;
33150;SDS011;19508;42.578;23.416;2023-03-24T07:50:10;11.63;;;6.93;;
33150;SDS011;19508;42.578;23.416;2023-03-24T07:52:37;11.90;;;7.15;;
33150;SDS011;19508;42.578;23.416;2023-03-24T07:55:06;15.48;;;7.05;;
33150;SDS011;19508;42.578;23.416;2023-03-24T07:57:40;20.75;;;7.43;;
33150;SDS011;19508;42.578;23.416;2023-03-24T08:00:13;14.00;;;8.48;;
33150;SDS011;19508;42.578;23.416;2023-03-24T08:02:41;24.42;;;8.00;;
33150;SDS011;19508;42.578;23.416;2023-03-24T08:05:11;12.48;;;7.57;;
33150;SDS011;19508;42.578;23.416;2023-03-24T08:07:45;15.88;;;8.32;;
33150;SDS011;19508;42.578;23.416;2023-03-24T08:10:17;14.98;;;8.95;;
33150;SDS011;19508;42.578;23.416;2023-03-24T08:12:45;12.02;;;7.88;;
33150;SDS011;19508;42.578;23.416;2023-03-24T08:15:11;15.77;;;9.23;;
33150;SDS011;19508;42.578;23.416;2023-03-24T08:17:37;15.68;;;8.63;;
33150;SDS011;19508;42.578;23.416;2023-03-24T08:20:03;12.88;;;7.93;;
33150;SDS011;19508;42.578;23.416;2023-03-24T08:22:32;14.32;;;9.10;;
33150;SDS011;19508;42.578;23.416;2023-03-24T08:24:57;17.95;;;8.65;;
33150;SDS011;19508;42.578;23.416;2023-03-24T08:27:23;17.40;;;10.13;;
33150;SDS011;19508;42.578;23.416;2023-03-24T08:29:48;33.63;;;15.00;;
33150;SDS011;19508;42.578;23.416;2023-03-24T08:32:13;39.55;;;9.85;;
33150;SDS011;19508;42.578;23.416;2023-03-24T08:34:39;16.98;;;9.63;;
33150;SDS011;19508;42.578;23.416;2023-03-24T08:37:04;14.95;;;8.60;;
33150;SDS011;19508;42.578;23.416;2023-03-24T08:39:30;14.68;;;8.88;;
33150;SDS011;19508;42.578;23.416;2023-03-24T08:41:56;19.65;;;9.80;;
33150;SDS011;19508;42.578;23.416;2023-03-24T08:44:22;21.02;;;9.75;;
33150;SDS011;19508;42.578;23.416;2023-03-24T08:46:47;16.73;;;9.90;;
33150;SDS011;19508;42.578;23.416;2023-03-24T08:49:13;16.67;;;9.48;;
33150;SDS011;19508;42.578;23.416;2023-03-24T08:51:38;19.05;;;9.55;;
33150;SDS011;19508;42.578;23.416;2023-03-24T08:54:04;15.48;;;9.18;;
33150;SDS011;19508;42.578;23.416;2023-03-24T08:56:30;17.27;;;8.68;;
33150;SDS011;19508;42.578;23.416;2023-03-24T08:58:55;14.80;;;8.93;;
33150;SDS011;19508;42.578;23.416;2023-03-24T09:01:22;16.30;;;8.40;;
33150;SDS011;19508;42.578;23.416;2023-03-24T09:03:48;14.68;;;8.10;;
33150;SDS011;19508;42.578;23.416;2023-03-24T09:06:14;13.43;;;7.90;;
33150;SDS011;19508;42.578;23.416;2023-03-24T09:08:40;16.13;;;7.60;;
33150;SDS011;19508;42.578;23.416;2023-03-24T09:11:05;19.77;;;8.20;;
33150;SDS011;19508;42.578;23.416;2023-03-24T09:13:31;17.85;;;7.90;;
33150;SDS011;19508;42.578;23.416;2023-03-24T09:15:57;12.43;;;7.55;;
33150;SDS011;19508;42.578;23.416;2023-03-24T09:18:24;14.63;;;8.35;;
33150;SDS011;19508;42.578;23.416;2023-03-24T09:20:50;12.75;;;7.68;;
33150;SDS011;19508;42.578;23.416;2023-03-24T09:23:16;11.93;;;7.60;;
33150;SDS011;19508;42.578;23.416;2023-03-24T09:25:42;11.43;;;6.70;;
33150;SDS011;19508;42.578;23.416;2023-03-24T09:28:09;14.02;;;6.75;;
33150;SDS011;19508;42.578;23.416;2023-03-24T09:30:34;19.17;;;6.38;;
33150;SDS011;19508;42.578;23.416;2023-03-24T09:33:00;13.82;;;7.40;;
33150;SDS011;19508;42.578;23.416;2023-03-24T09:35:26;13.25;;;5.82;;
33150;SDS011;19508;42.578;23.416;2023-03-24T09:37:52;14.82;;;5.30;;
33150;SDS011;19508;42.578;23.416;2023-03-24T09:40:19;8.88;;;5.25;;
33150;SDS011;19508;42.578;23.416;2023-03-24T09:42:53;14.57;;;5.80;;
33150;SDS011;19508;42.578;23.416;2023-03-24T09:45:22;11.23;;;6.18;;
33150;SDS011;19508;42.578;23.416;2023-03-24T09:47:55;10.98;;;5.22;;
33150;SDS011;19508;42.578;23.416;2023-03-24T09:50:33;7.55;;;4.53;;
33150;SDS011;19508;42.578;23.416;2023-03-24T09:56:10;8.88;;;5.35;;
33150;SDS011;19508;42.578;23.416;2023-03-24T09:58:40;6.70;;;4.35;;
33150;SDS011;19508;42.578;23.416;2023-03-24T10:01:10;13.50;;;5.20;;
33150;SDS011;19508;42.578;23.416;2023-03-24T10:03:38;8.80;;;5.40;;
33150;SDS011;19508;42.578;23.416;2023-03-24T10:06:06;13.80;;;5.45;;
33150;SDS011;19508;42.578;23.416;2023-03-24T10:08:35;8.25;;;4.97;;
33150;SDS011;19508;42.578;23.416;2023-03-24T10:11:13;11.98;;;4.32;;
33150;SDS011;19508;42.578;23.416;2023-03-24T10:13:51;9.50;;;4.00;;
33150;SDS011;19508;42.578;23.416;2023-03-24T10:16:30;11.98;;;3.90;;
33150;SDS011;19508;42.578;23.416;2023-03-24T10:19:07;6.22;;;4.07;;
33150;SDS011;19508;42.578;23.416;2023-03-24T10:21:53;9.20;;;4.70;;
33150;SDS011;19508;42.578;23.416;2023-03-24T10:24:30;7.93;;;4.50;;
33150;SDS011;19508;42.578;23.416;2023-03-24T10:29:41;12.68;;;4.65;;
33150;SDS011;19508;42.578;23.416;2023-03-24T10:32:13;9.27;;;4.97;;
33150;SDS011;19508;42.578;23.416;2023-03-24T10:34:44;6.53;;;3.88;;
33150;SDS011;19508;42.578;23.416;2023-03-24T10:37:13;8.35;;;4.10;;
33150;SDS011;19508;42.578;23.416;2023-03-24T10:39:40;8.52;;;4.60;;
33150;SDS011;19508;42.578;23.416;2023-03-24T10:42:08;6.35;;;3.80;;
33150;SDS011;19508;42.578;23.416;2023-03-24T10:44:48;14.30;;;4.35;;
33150;SDS011;19508;42.578;23.416;2023-03-24T10:47:16;5.20;;;3.40;;
33150;SDS011;19508;42.578;23.416;2023-03-24T10:52:38;7.13;;;3.78;;
33150;SDS011;19508;42.578;23.416;2023-03-24T10:55:05;7.47;;;4.40;;
33150;SDS011;19508;42.578;23.416;2023-03-24T10:57:31;18.27;;;4.90;;
33150;SDS011;19508;42.578;23.416;2023-03-24T11:00:08;10.95;;;4.55;;
33150;SDS011;19508;42.578;23.416;2023-03-24T11:03:05;9.10;;;4.78;;
33150;SDS011;19508;42.578;23.416;2023-03-24T11:05:36;7.88;;;4.88;;
33150;SDS011;19508;42.578;23.416;2023-03-24T11:08:21;8.98;;;5.28;;
33150;SDS011;19508;42.578;23.416;2023-03-24T11:10:52;12.50;;;4.88;;
33150;SDS011;19508;42.578;23.416;2023-03-24T11:16:04;33.35;;;7.35;;
33150;SDS011;19508;42.578;23.416;2023-03-24T11:21:29;21.48;;;7.25;;
33150;SDS011;19508;42.578;23.416;2023-03-24T11:24:00;21.02;;;6.72;;
33150;SDS011;19508;42.578;23.416;2023-03-24T11:28:56;13.00;;;6.97;;
33150;SDS011;19508;42.578;23.416;2023-03-24T11:31:28;9.82;;;5.50;;
33150;SDS011;19508;42.578;23.416;2023-03-24T11:36:37;19.77;;;6.65;;
33150;SDS011;19508;42.578;23.416;2023-03-24T11:41:37;17.67;;;6.65;;
33150;SDS011;19508;42.578;23.416;2023-03-24T11:44:22;13.13;;;7.25;;
33150;SDS011;19508;42.578;23.416;2023-03-24T11:46:50;17.10;;;6.30;;
33150;SDS011;19508;42.578;23.416;2023-03-24T11:49:20;14.93;;;6.40;;
33150;SDS011;19508;42.578;23.416;2023-03-24T11:51:49;10.50;;;6.03;;
33150;SDS011;19508;42.578;23.416;2023-03-24T11:54:17;11.75;;;6.80;;
33150;SDS011;19508;42.578;23.416;2023-03-24T11:56:45;16.98;;;6.70;;
33150;SDS011;19508;42.578;23.416;2023-03-24T11:59:26;11.60;;;6.63;;
33150;SDS011;19508;42.578;23.416;2023-03-24T12:05:30;12.07;;;5.47;;
33150;SDS011;19508;42.578;23.416;2023-03-24T12:10:39;13.82;;;6.75;;
33150;SDS011;19508;42.578;23.416;2023-03-24T12:18:34;16.83;;;8.30;;
33150;SDS011;19508;42.578;23.416;2023-03-24T12:23:58;25.05;;;5.90;;
33150;SDS011;19508;42.578;23.416;2023-03-24T12:26:34;9.75;;;5.20;;
33150;SDS011;19508;42.578;23.416;2023-03-24T12:29:11;12.10;;;5.90;;
33150;SDS011;19508;42.578;23.416;2023-03-24T12:42:22;14.45;;;6.20;;
33150;SDS011;19508;42.578;23.416;2023-03-24T12:55:48;23.00;;;7.43;;
33150;SDS011;19508;42.578;23.416;2023-03-24T12:58:51;16.73;;;6.90;;
33150;SDS011;19508;42.578;23.416;2023-03-24T13:04:15;13.18;;;6.55;;
33150;SDS011;19508;42.578;23.416;2023-03-24T13:12:18;14.50;;;7.35;;
33150;SDS011;19508;42.578;23.416;2023-03-24T13:20:26;16.05;;;6.15;;
33150;SDS011;19508;42.578;23.416;2023-03-24T13:22:56;17.38;;;6.65;;
33150;SDS011;19508;42.578;23.416;2023-03-24T13:25:29;16.58;;;6.13;;
33150;SDS011;19508;42.578;23.416;2023-03-24T13:28:03;13.48;;;6.38;;
33150;SDS011;19508;42.578;23.416;2023-03-24T13:30:38;23.58;;;6.18;;
33150;SDS011;19508;42.578;23.416;2023-03-24T13:38:26;22.70;;;6.68;;
33150;SDS011;19508;42.578;23.416;2023-03-24T13:41:11;17.98;;;6.95;;
33150;SDS011;19508;42.578;23.416;2023-03-24T13:43:46;10.05;;;5.80;;
33150;SDS011;19508;42.578;23.416;2023-03-24T13:46:15;27.42;;;5.93;;
33150;SDS011;19508;42.578;23.416;2023-03-24T13:48:42;15.90;;;6.95;;
33150;SDS011;19508;42.578;23.416;2023-03-24T13:51:31;17.85;;;6.15;;
33150;SDS011;19508;42.578;23.416;2023-03-24T13:54:04;18.65;;;6.07;;
33150;SDS011;19508;42.578;23.416;2023-03-24T13:56:54;15.98;;;5.97;;
33150;SDS011;19508;42.578;23.416;2023-03-24T13:59:29;11.80;;;5.70;;
33150;SDS011;19508;42.578;23.416;2023-03-24T14:16:42;13.73;;;4.78;;
33150;SDS011;19508;42.578;23.416;2023-03-24T14:19:37;11.57;;;4.22;;
33150;SDS011;19508;42.578;23.416;2023-03-24T14:22:13;9.27;;;4.53;;
33150;SDS011;19508;42.578;23.416;2023-03-24T14:24:41;8.05;;;4.10;;
33150;SDS011;19508;42.578;23.416;2023-03-24T14:27:30;11.68;;;4.18;;
33150;SDS011;19508;42.578;23.416;2023-03-24T14:30:21;13.07;;;4.68;;
33150;SDS011;19508;42.578;23.416;2023-03-24T14:32:50;16.38;;;5.00;;
33150;SDS011;19508;42.578;23.416;2023-03-24T14:35:19;11.82;;;4.47;;
33150;SDS011;19508;42.578;23.416;2023-03-24T14:37:46;20.55;;;4.63;;
33150;SDS011;19508;42.578;23.416;2023-03-24T14:43:16;12.50;;;4.03;;
33150;SDS011;19508;42.578;23.416;2023-03-24T14:46:07;9.10;;;4.28;;
33150;SDS011;19508;42.578;23.416;2023-03-24T14:54:39;7.10;;;3.30;;
33150;SDS011;19508;42.578;23.416;2023-03-24T14:57:15;11.13;;;3.83;;
33150;SDS011;19508;42.578;23.416;2023-03-24T15:02:27;8.00;;;3.38;;
33150;SDS011;19508;42.578;23.416;2023-03-24T15:07:42;7.95;;;3.25;;
33150;SDS011;19508;42.578;23.416;2023-03-24T15:10:16;9.05;;;3.28;;
33150;SDS011;19508;42.578;23.416;2023-03-24T15:12:44;9.88;;;4.05;;
33150;SDS011;19508;42.578;23.416;2023-03-24T15:15:21;8.80;;;4.40;;
33150;SDS011;19508;42.578;23.416;2023-03-24T15:17:47;12.80;;;4.15;;
33150;SDS011;19508;42.578;23.416;2023-03-24T15:20:32;10.75;;;4.53;;
33150;SDS011;19508;42.578;23.416;2023-03-24T15:23:07;11.20;;;3.90;;
33150;SDS011;19508;42.578;23.416;2023-03-24T15:25:41;18.33;;;6.35;;
33150;SDS011;19508;42.578;23.416;2023-03-24T15:28:10;94.10;;;45.58;;
33150;SDS011;19508;42.578;23.416;2023-03-24T15:30:42;28.80;;;11.80;;
33150;SDS011;19508;42.578;23.416;2023-03-24T15:33:08;24.23;;;6.75;;
33150;SDS011;19508;42.578;23.416;2023-03-24T15:35:35;19.85;;;6.63;;
33150;SDS011;19508;42.578;23.416;2023-03-24T15:38:01;19.60;;;9.43;;
33150;SDS011;19508;42.578;23.416;2023-03-24T15:42:58;51.03;;;20.55;;
33150;SDS011;19508;42.578;23.416;2023-03-24T15:48:12;27.60;;;9.73;;
33150;SDS011;19508;42.578;23.416;2023-03-24T15:50:41;29.58;;;14.77;;
33150;SDS011;19508;42.578;23.416;2023-03-24T15:53:24;26.75;;;14.35;;
33150;SDS011;19508;42.578;23.416;2023-03-24T15:56:29;27.58;;;13.77;;
33150;SDS011;19508;42.578;23.416;2023-03-24T15:59:06;34.03;;;12.25;;
33150;SDS011;19508;42.578;23.416;2023-03-24T16:01:34;19.30;;;7.68;;
33150;SDS011;19508;42.578;23.416;2023-03-24T16:04:20;25.63;;;6.40;;
33150;SDS011;19508;42.578;23.416;2023-03-24T16:06:48;14.77;;;4.32;;
33150;SDS011;19508;42.578;23.416;2023-03-24T16:09:15;17.85;;;5.65;;
33150;SDS011;19508;42.578;23.416;2023-03-24T16:11:46;11.38;;;5.65;;
33150;SDS011;19508;42.578;23.416;2023-03-24T16:14:19;21.92;;;6.60;;
33150;SDS011;19508;42.578;23.416;2023-03-24T16:16:59;11.88;;;6.13;;
33150;SDS011;19508;42.578;23.416;2023-03-24T16:19:28;36.67;;;19.50;;
33150;SDS011;19508;42.578;23.416;2023-03-24T16:21:54;47.53;;;23.10;;
33150;SDS011;19508;42.578;23.416;2023-03-24T16:24:20;72.80;;;38.58;;
33150;SDS011;19508;42.578;23.416;2023-03-24T16:26:46;103.10;;;51.78;;
33150;SDS011;19508;42.578;23.416;2023-03-24T16:31:37;42.35;;;18.35;;
33150;SDS011;19508;42.578;23.416;2023-03-24T16:34:03;24.40;;;10.77;;
33150;SDS011;19508;42.578;23.416;2023-03-24T16:36:29;20.20;;;8.75;;
33150;SDS011;19508;42.578;23.416;2023-03-24T16:38:58;21.90;;;10.35;;
33150;SDS011;19508;42.578;23.416;2023-03-24T16:41:25;20.35;;;8.38;;
33150;SDS011;19508;42.578;23.416;2023-03-24T16:43:51;10.00;;;4.72;;
33150;SDS011;19508;42.578;23.416;2023-03-24T16:46:20;39.78;;;8.15;;
33150;SDS011;19508;42.578;23.416;2023-03-24T16:48:54;17.88;;;6.53;;
33150;SDS011;19508;42.578;23.416;2023-03-24T16:51:19;22.30;;;8.40;;
33150;SDS011;19508;42.578;23.416;2023-03-24T16:53:46;15.88;;;8.98;;
33150;SDS011;19508;42.578;23.416;2023-03-24T16:56:12;22.23;;;8.07;;
33150;SDS011;19508;42.578;23.416;2023-03-24T16:58:39;21.45;;;8.55;;
33150;SDS011;19508;42.578;23.416;2023-03-24T17:01:11;32.83;;;9.85;;
33150;SDS011;19508;42.578;23.416;2023-03-24T17:03:52;41.00;;;9.57;;
33150;SDS011;19508;42.578;23.416;2023-03-24T17:06:19;38.17;;;17.95;;
33150;SDS011;19508;42.578;23.416;2023-03-24T17:08:45;34.75;;;13.32;;
33150;SDS011;19508;42.578;23.416;2023-03-24T17:11:10;22.30;;;12.27;;
33150;SDS011;19508;42.578;23.416;2023-03-24T17:13:36;21.13;;;11.15;;
33150;SDS011;19508;42.578;23.416;2023-03-24T17:16:01;30.13;;;15.05;;
33150;SDS011;19508;42.578;23.416;2023-03-24T17:18:27;62.83;;;31.88;;
33150;SDS011;19508;42.578;23.416;2023-03-24T17:20:52;71.07;;;37.75;;
33150;SDS011;19508;42.578;23.416;2023-03-24T17:23:17;66.60;;;29.85;;
33150;SDS011;19508;42.578;23.416;2023-03-24T17:25:43;57.83;;;28.42;;
33150;SDS011;19508;42.578;23.416;2023-03-24T17:28:15;22.33;;;9.98;;
33150;SDS011;19508;42.578;23.416;2023-03-24T17:30:41;27.63;;;10.60;;
33150;SDS011;19508;42.578;23.416;2023-03-24T17:33:14;21.52;;;8.27;;